Terminal Aerodrome Forecast
Issued by NWS Wilmington, NC

Home | Current Version | Previous Version | Text Only | Print | Product List | Glossary On
Versions: 1 2 3 4 5 6 7 8 9 10 11 12 13 14 15 16 17
897
FTUS42 KILM 250538 CCA
TAFMYR
TAF COR
KMYR 250538Z 2506/2606 36005KT 1SM BR VCSH BKN020 BKN090
      TEMPO 2506/2510 1/4SM -SHRA FG BKN008
     FM251500 29010KT P6SM BKN010 PROB30 2515/2519 3SM SHRA BKN006
     FM252200 27011KT P6SM BKN020
     FM260300 28009KT P6SM SCT110
      AMD LTD TO CLD VIS AND WIND TIL 251000=

USA.gov is the U.S. government's official web portal to all federal, state and local government web resources and services.